Friday, July 20, 2018, 11:39 AM CDT
Back to Local

KIXD, New Century Aircenter

Location: Olathe, KS, United States Lat: 38.817
Local Time: 11:39 AM CDT (16:39 GMT) Lon: -94.883
Time Zone: US/Central Elev: 1085 ft

Show me the last for .
Show Decoded

2018-07-20 10:53 METAR KIXD 201553Z 04004KT 10SM CLR 32/18 A2990 RMK AO2 SLP113 T03220178 =
2018-07-20 09:53 METAR KIXD 201453Z 00000KT 10SM CLR 29/18 A2991 RMK AO2 SLP116 T02940183 51004 =
2018-07-20 08:53 METAR KIXD 201353Z 04005KT 10SM CLR 28/19 A2991 RMK AO2 SLP115 T02780189 =
2018-07-20 07:53 METAR KIXD 201253Z 03004KT 10SM CLR 25/21 A2991 RMK AO2 SLP115 T02500206 =
2018-07-20 06:53 METAR KIXD 201153Z 36004KT 10SM CLR 23/20 A2990 RMK AO2 SLP112 70004 T02280200
                 10228 20206 53010 =
2018-07-20 05:53 METAR KIXD 201053Z 02004KT 10SM CLR 22/19 A2988 RMK AO2 SLP109 T02170194 =
2018-07-20 04:53 METAR KIXD 200953Z AUTO 36005KT 10SM CLR 21/19 A2987 RMK AO2 SLP106 T02060194 =
2018-07-20 03:53 METAR KIXD 200853Z AUTO 35005KT 10SM CLR 22/19 A2987 RMK AO2 SLP100 T02170194
                 58002 =
2018-07-20 02:53 METAR KIXD 200753Z AUTO 34003KT 10SM SCT080 SCT100 22/19 A2987 RMK AO2 SLP101
                 T02220194 =
2018-07-20 01:53 METAR KIXD 200653Z AUTO 21004KT 10SM BKN090 22/19 A2987 RMK AO2 SLP101 T02170194
                 =
2018-07-20 00:53 METAR KIXD 200553Z AUTO 22003KT 10SM CLR 22/19 A2987 RMK AO2 SLP101 T02170194
                 10261 20211 403720211 51003 =
2018-07-19 23:53 METAR KIXD 200453Z AUTO 22004KT 10SM FEW085 FEW100 22/19 A2987 RMK AO2 SLP100
                 T02170194 =
2018-07-19 22:53 METAR KIXD 200353Z AUTO 21006KT 10SM CLR 22/19 A2987 RMK AO2 SLP102 T02170189 =
2018-07-19 21:53 METAR KIXD 200253Z 20006KT 10SM CLR 22/19 A2986 RMK AO2 SLP100 T02220189 53003 =
2018-07-19 20:53 METAR KIXD 200153Z 18003KT 10SM CLR 23/19 A2985 RMK AO2 SLP096 T02280194 =
2018-07-19 19:53 METAR KIXD 200053Z 15007KT 10SM CLR 26/21 A2983 RMK AO2 SLP090 T02560206 =
2018-07-19 18:53 METAR KIXD 192353Z 17008KT 10SM CLR 26/22 A2985 RMK AO2 LTG DSNT SW SLP097 60004
                 T02560217 10372 20244 50007 =
2018-07-19 17:53 METAR KIXD 192253Z 15006KT 10SM CLR 25/21 A2985 RMK AO2 TSE2154 SLP098 T02500211
                 =
2018-07-19 17:00 METAR KIXD 192200Z 16004KT 10SM FEW060 26/21 A2984 RMK AO2 LTG DSNT E-S TSE2154
                 T02560206 =
2018-07-19 16:53 METAR KIXD 192153Z 22004KT 10SM TS FEW060 SCT090 25/21 A2984 RMK AO2 PK WND
                 29038/2111 LTG DSNT E-SW RAB16E34 TSE32B39 SLP094 OCNL LTG CG TS SE MOV SE P0004
                 T02500206 =
2018-07-19 16:45 METAR KIXD 192145Z 24006KT 10SM TS FEW049 SCT060 BKN080 25/20 A2984 RMK AO2 PK
                 WND 29038/2111 LTG DSNT E-SW RAB16E34 TSE32B39 OCNL LTG CG TS SE MOV SE P0004
                 T02500200 =
2018-07-19 16:38 METAR KIXD 192138Z 27009G18KT 10SM VCTS FEW049 SCT060 BKN080 25/20 A2985 RMK AO2
                 PK WND 29038/2111 LTG DSNT E-SW RAB16E34 TSE32 OCNL LTG CG TS OHD MOV E P0004
                 T02500200 =
2018-07-19 16:21 METAR KIXD 192121Z 28020G37KT 3SM TSRA BR SCT048 BKN065 BKN090 25/19 A2982 RMK
                 AO2 PK WND 29038/2111 LTG DSNT SE-W RAB16 OCNL LTG CG TS OHD MOV E P0004
                 T02500194 =
2018-07-19 16:01 METAR KIXD 192101Z 31009KT 10SM VCTS FEW110 34/22 A2982 RMK AO2 LTG DSNT ALQDS
                 OCNL LTG CG TS W AND NW MOV UNKN T03390217 =
2018-07-19 15:53 METAR KIXD 192053Z 31007KT 10SM CLR 34/22 A2983 RMK AO2 LTG DSNT ALQDS SLP086
                 T03390217 55006 =
2018-07-19 15:37 METAR KIXD 192037Z 30007KT 10SM CLR 34/22 A2983 RMK AO2 LTG DSNT ALQDS TS E MOV
                 UNKN T03440217 =
2018-07-19 15:21 METAR KIXD 192021Z 29009KT 10SM VCTS CLR 35/22 A2983 RMK AO2 LTG DSNT E AND SW
                 TS E MOV UNKN T03500217 =
2018-07-19 14:53 METAR KIXD 191953Z 32009KT 10SM FEW090 37/22 A2982 RMK AO2 LTG DSNT E AND SE
                 SLP083 T03670217 =
2018-07-19 13:53 METAR KIXD 191853Z 30008KT 10SM FEW060 36/21 A2983 RMK AO2 LTG DSNT NE AND E
                 SLP084 T03610211 =
2018-07-19 12:53 METAR KIXD 191753Z 19006KT 10SM FEW055 35/23 A2985 RMK AO2 SLP093 T03500228
                 10350 20233 56005 =
2018-07-19 11:53 METAR KIXD 191653Z 21009KT 10SM CLR 34/24 A2985 RMK AO2 SLP095 T03390239 =

Support USWX by starting your Amazon purchase here.